GW0881 Weather Reports


time (UTC)temp
C
wind
direction
speed
KPH
gust
KPH
rain 1hr
cm
rain 24hr
cm
rain mn
cm
humidity
%
barometer
mb
20240518193636 25 340 8.0 11.3 0.00 0.18 0.18 51 1004.8
20240518193135 25 9 8.0 12.9 0.00 0.18 0.18 53 1004.7
20240518192634 25 268 4.8 4.8 0.00 0.18 0.18 53 1004.6
20240518192132 25 322 6.4 8.0 0.00 0.18 0.18 53 1004.8
20240518191630 25 297 9.7 11.3 0.00 0.18 0.18 51 1004.5
20240518191129 25 261 6.4 8.0 0.00 0.18 0.18 54 1004.4
20240518190624 25 253 3.2 3.2 0.00 0.18 0.18 55 1004.4
20240518190123 25 302 8.0 11.3 0.00 0.18 0.18 52 1004.4
20240518185622 25 265 8.0 9.7 0.00 0.18 0.18 53 1004.3
20240518185119 25 295 4.8 4.8 0.00 0.18 0.18 53 1004.2
20240518184618 25 274 4.8 4.8 0.00 0.18 0.18 53 1004.2
20240518184114 25 295 9.7 11.3 0.00 0.18 0.18 52 1004.1
20240518183558 25 299 4.8 4.8 0.00 0.18 0.18 56 1004.2
20240518183052 25 294 8.0 9.7 0.00 0.18 0.18 54 1003.8
20240518182551 25 294 4.8 8.0 0.00 0.18 0.18 54 1003.8
20240518182047 25 328 8.0 11.3 0.00 0.18 0.18 53 1003.9
20240518181544 25 9 11.3 14.5 0.00 0.18 0.18 55 1003.8
20240518181036 24 281 4.8 4.8 0.00 0.18 0.18 55 1003.7
20240518180525 24 299 4.8 8.0 0.00 0.18 0.18 57 1003.7
20240518180024 25 328 6.4 8.0 0.00 0.18 0.18 57 1003.6
20240518175519 25 56 4.8 8.0 0.00 0.18 0.18 57 1003.6
20240518175019 25 341 4.8 4.8 0.00 0.18 0.18 57 1003.3
20240518174518 25 302 4.8 4.8 0.00 0.18 0.18 59 1003.3
20240518174017 25 332 4.8 4.8 0.00 0.18 0.18 55 1003.2
20240518173517 25 239 4.8 8.0 0.00 0.18 0.18 58 1003.2
20240518173016 25 281 8.0 9.7 0.00 0.18 0.18 57 1003.2
20240518172516 25 240 4.8 4.8 0.00 0.18 0.18 60 1003.1
20240518172016 25 265 6.4 8.0 0.00 0.18 0.18 62 1003.2
20240518171514 24 198 4.8 4.8 0.00 0.18 0.18 62 1003.1
20240518171013 24 266 4.8 4.8 0.00 0.18 0.18 61 1002.9
20240518170510 25 241 4.8 4.8 0.00 0.18 0.18 63 1003.0
20240518170010 24 283 4.8 4.8 0.00 0.18 0.18 62 1002.9
20240518165509 24 283 4.8 4.8 0.00 0.18 0.18 63 1002.8
20240518165009 23 244 3.2 3.2 0.00 0.18 0.18 63 1002.8
20240518164508 23 287 6.4 8.0 0.00 0.18 0.18 62 1002.8
20240518164008 23 266 3.2 3.2 0.00 0.18 0.18 63 1002.7
20240518163506 23 262 3.2 3.2 0.00 0.18 0.18 60 1002.4
20240518163006 24 274 4.8 8.0 0.00 0.18 0.18 62 1002.7
20240518162506 23 266 3.2 3.2 0.00 0.18 0.18 65 1002.4
20240518162005 23 257 3.2 3.2 0.00 0.18 0.18 64 1002.3
20240518161504 23 255 3.2 3.2 0.00 0.18 0.18 64 1002.1
20240518161003 23 233 4.8 8.0 0.00 0.18 0.18 64 1002.0
20240518160501 23 254 3.2 3.2 0.00 0.18 0.18 63 1002.0
20240518160000 23 254 1.6 3.2 0.00 0.18 0.18 64 1002.0
20240518155500 23 235 4.8 4.8 0.00 0.18 0.18 65 1002.1
20240518155000 23 228 1.6 3.2 0.00 0.18 0.18 67 1001.9
20240518154459 23 229 1.6 1.6 0.00 0.18 0.18 66 1001.8
20240518153958 23 221 1.6 1.6 0.00 0.18 0.18 69 1001.8
20240518153458 23 215 1.6 1.6 0.00 0.18 0.18 67 1001.8
20240518152956 22 199 4.8 4.8 0.00 0.18 0.18 67 1002.0
20240518152455 22 247 4.8 4.8 0.00 0.18 0.18 66 1001.6
20240518151954 22 251 3.2 3.2 0.00 0.18 0.18 68 1001.8
20240518151452 22 230 1.6 1.6 0.00 0.18 0.18 69 1001.8
20240518150952 22 225 0.0 0.0 0.00 0.18 0.18 70 1001.5
20240518150449 22 226 1.6 1.6 0.00 0.18 0.18 68 1001.5
20240518145948 22 200 4.8 4.8 0.00 0.18 0.18 69 1001.4
20240518145448 22 229 1.6 1.6 0.00 0.18 0.18 68 1001.4
20240518144945 22 216 0.0 1.6 0.00 0.18 0.18 70 1001.5
20240518144444 22 215 1.6 1.6 0.00 0.18 0.18 71 1001.4
20240518143943 21 211 1.6 3.2 0.00 0.18 0.18 71 1001.2
20240518143442 21 228 3.2 3.2 0.00 0.18 0.18 71 1001.5
20240518142942 21 220 1.6 3.2 0.00 0.18 0.18 71 1001.5
20240518142440 21 219 3.2 3.2 0.00 0.18 0.18 72 1001.4
20240518141940 21 216 3.2 3.2 0.00 0.18 0.18 72 1001.3
20240518141438 21 219 4.8 4.8 0.00 0.18 0.18 72 1001.3
20240518140937 21 232 1.6 1.6 0.00 0.18 0.18 73 1001.4
20240518140437 20 208 4.8 4.8 0.00 0.18 0.18 75 1001.4
20240518135936 20 222 4.8 4.8 0.00 0.18 0.18 76 1001.5
20240518135434 20 205 0.0 0.0 0.00 0.18 0.18 78 1001.3
20240518134934 20 213 0.0 0.0 0.00 0.18 0.18 79 1001.3
20240518134433 20 204 1.6 1.6 0.00 0.18 0.18 77 1001.4
20240518133933 20 197 1.6 1.6 0.00 0.18 0.18 77 1001.3
20240518133432 20 197 0.0 1.6 0.00 0.18 0.18 78 1001.5
20240518132931 19 206 1.6 1.6 0.00 0.18 0.18 78 1001.4
20240518132430 19 205 1.6 1.6 0.00 0.18 0.18 79 1001.3
20240518131929 18 207 1.6 1.6 0.00 0.18 0.18 80 1001.2
20240518131428 18 233 1.6 3.2 0.00 0.18 0.18 82 1001.3
20240518130926 18 195 0.0 1.6 0.00 0.18 0.18 83 1001.5
20240518130425 18 216 0.0 0.0 0.00 0.18 0.18 83 1001.5
20240518125923 18 207 0.0 1.6 0.00 0.18 0.18 82 1001.6
20240518125422 17 206 0.0 0.0 0.00 0.18 0.18 82 1001.7
20240518124921 17 208 0.0 0.0 0.00 0.18 0.18 83 1001.6
20240518124420 17 208 0.0 0.0 0.00 0.18 0.18 84 1001.5
20240518123920 17 207 0.0 0.0 0.00 0.18 0.18 87 1001.5
20240518123418 17 209 0.0 0.0 0.00 0.18 0.18 87 1001.1
20240518122917 17 214 0.0 0.0 0.00 0.18 0.18 88 1001.2
20240518122415 16 212 0.0 0.0 0.00 0.18 0.18 88 1001.4
20240518121914 16 205 0.0 0.0 0.00 0.18 0.18 88 1001.2
20240518121413 16 210 0.0 0.0 0.00 0.18 0.18 89 1001.1
20240518120911 16 209 0.0 0.0 0.00 0.18 0.18 89 1001.0
20240518120411 16 210 0.0 0.0 0.00 0.18 0.18 90 1001.1
20240518115911 15 207 0.0 0.0 0.00 0.18 0.18 91 1000.9
20240518115409 15 203 0.0 0.0 0.00 0.18 0.18 92 1001.0
20240518114909 15 210 0.0 0.0 0.00 0.18 0.18 92 1000.8
20240518114407 15 213 0.0 0.0 0.00 0.18 0.18 92 1000.9
20240518113907 15 209 0.0 0.0 0.00 0.18 0.18 92 1000.8
20240518113406 15 205 0.0 0.0 0.00 0.18 0.18 92 1000.9
20240518112906 15 209 0.0 0.0 0.00 0.18 0.18 91 1000.8
20240518112405 15 213 0.0 0.0 0.00 0.18 0.18 91 1000.6
20240518111904 15 209 0.0 0.0 0.00 0.18 0.18 91 1000.6
20240518111404 15 197 0.0 1.6 0.00 0.18 0.18 90 1000.6
20240518110903 15 214 0.0 0.0 0.00 0.18 0.18 90 1000.4
20240518110403 16 211 0.0 0.0 0.00 0.18 0.18 89 1000.3
20240518105904 16 208 0.0 1.6 0.18 0.18 0.18 89 1000.1
20240518105402 16 206 1.6 1.6 0.18 0.18 0.18 89 1000.3
20240518104901 16 198 1.6 3.2 0.18 0.18 0.18 88 1000.2
20240518104401 16 181 1.6 1.6 0.00 0.15 0.15 88 1000.4
20240518103901 16 196 1.6 1.6 0.10 0.15 0.15 88 1000.3
20240518103401 16 199 1.6 3.2 0.41 0.15 0.15 87 1000.2
20240518102859 16 206 3.2 3.2 0.41 0.15 0.15 86 1000.3
20240518102357 17 229 3.2 3.2 0.18 0.08 0.08 83 1000.4
20240518101856 17 177 4.8 8.0 0.00 0.05 0.05 80 1000.2
20240518101355 17 186 1.6 3.2 0.00 0.05 0.05 78 1000.5
20240518100855 17 224 1.6 1.6 0.00 0.05 0.05 79 1000.2
20240518100354 17 202 4.8 8.0 0.00 0.05 0.05 79 1000.3
20240518095852 17 220 4.8 4.8 0.00 0.05 0.05 77 1000.3
20240518095352 18 197 4.8 4.8 0.00 0.05 0.05 75 1000.3
20240518094850 18 224 0.0 1.6 0.00 0.05 0.05 71 1000.2
20240518094350 18 206 1.6 3.2 0.00 0.05 0.05 70 1000.1
20240518093849 18 218 4.8 4.8 0.00 0.05 0.05 71 1000.2
20240518093348 18 206 1.6 3.2 0.00 0.05 0.05 71 1000.3
20240518092846 19 212 1.6 1.6 0.00 0.05 0.05 70 1000.1
20240518092345 18 224 4.8 8.0 0.00 0.05 0.05 70 1000.3
20240518091843 18 214 4.8 8.0 0.00 0.05 0.05 71 1000.2
20240518091342 19 200 1.6 1.6 0.00 0.05 0.05 70 1000.3
20240518090839 19 187 1.6 1.6 0.00 0.05 0.05 71 1000.3
20240518090338 19 202 4.8 8.0 0.00 0.05 0.05 69 1000.3
20240518085836 19 199 4.8 8.0 0.00 0.05 0.05 69 1000.3
20240518085336 19 216 4.8 4.8 0.00 0.05 0.05 69 1000.1
20240518084834 19 186 1.6 3.2 0.00 0.05 0.05 69 1000.3
20240518084333 19 209 4.8 4.8 0.00 0.05 0.05 69 1000.2
20240518083831 19 200 1.6 3.2 0.00 0.05 0.05 69 1000.3
20240518083330 19 188 4.8 4.8 0.00 0.05 0.05 68 1000.4
20240518082829 19 193 1.6 3.2 0.00 0.05 0.05 69 1000.4
20240518082327 20 199 1.6 1.6 0.00 0.05 0.05 68 1000.3
20240518081824 20 197 1.6 4.8 0.00 0.05 0.05 67 1000.3
20240518081324 20 208 1.6 3.2 0.00 0.05 0.05 67 1000.3
20240518080817 20 210 3.2 3.2 0.00 0.05 0.05 66 1000.1
20240518080316 20 183 3.2 3.2 0.00 0.05 0.05 66 1000.4
20240518075815 20 211 6.4 8.0 0.00 0.05 0.05 66 1000.4
20240518075315 20 228 3.2 4.8 0.00 0.05 0.05 66 1000.3
20240518074813 20 206 3.2 3.2 0.00 0.05 0.05 65 1000.4
20240518074312 20 207 4.8 4.8 0.00 0.05 0.05 66 1000.4
20240518073810 20 206 8.0 9.7 0.00 0.05 0.05 65 1000.3
20240518073311 20 205 3.2 3.2 0.00 0.05 0.05 67 1000.4
20240518072809 19 222 4.8 8.0 0.00 0.05 0.05 70 1000.3
20240518072307 18 195 4.8 8.0 0.00 0.05 0.05 77 1000.2
20240518071806 17 207 4.8 4.8 0.10 0.05 0.05 80 1000.2
20240518071305 17 209 4.8 8.0 0.10 0.05 0.05 82 1000.1
20240518070803 17 208 3.2 4.8 0.18 0.05 0.05 83 1000.2
20240518070302 17 213 1.6 3.2 0.28 0.05 0.05 83 1000.0
20240518065801 17 218 1.6 1.6 0.10 0.00 0.00 80 999.9
20240518065300 18 217 1.6 1.6 0.00 0.00 0.00 77 1000.2
20240518064758 18 216 4.8 4.8 0.00 0.00 0.00 74 1000.3
20240518064257 18 203 3.2 3.2 0.00 0.00 0.00 74 1000.5
20240518063757 18 200 1.6 3.2 0.00 0.00 0.00 75 1000.3
20240518063255 18 204 1.6 3.2 0.00 0.00 0.00 75 1000.4
20240518062753 18 192 1.6 1.6 0.00 0.00 0.00 75 1000.5
20240518062252 18 199 1.6 3.2 0.00 0.00 0.00 75 1000.5
20240518061752 18 221 1.6 1.6 0.00 0.00 0.00 76 1000.4
20240518061251 18 206 1.6 1.6 0.00 0.00 0.00 76 1000.2
20240518060750 18 197 3.2 3.2 0.00 0.00 0.00 76 1000.3
20240518060249 18 202 1.6 3.2 0.00 0.00 0.00 77 1000.3
20240518055749 18 210 1.6 3.2 0.00 0.00 0.00 77 1000.2
20240518055248 18 221 3.2 4.8 0.00 0.00 0.00 77 1000.3
20240518054746 18 190 1.6 1.6 0.00 0.00 0.00 77 1000.5
20240518054244 18 197 1.6 1.6 0.00 0.00 0.00 77 1000.6
20240518053744 18 200 1.6 1.6 0.00 0.00 0.00 77 1000.6
20240518053243 18 212 3.2 4.8 0.00 0.00 0.00 77 1000.5
20240518052743 17 208 3.2 3.2 0.00 0.00 0.00 78 1000.5
20240518052241 18 203 1.6 3.2 0.00 0.00 0.00 78 1000.5
20240518051740 17 184 1.6 1.6 0.00 0.00 0.00 78 1000.7
20240518051239 17 213 3.2 3.2 0.00 0.00 0.00 79 1000.7
20240518050736 18 201 1.6 1.6 0.00 0.00 0.00 79 1001.0
20240518050235 18 185 3.2 4.8 0.00 0.00 0.00 78 1000.7
20240518045734 18 209 3.2 4.8 0.00 0.64 0.64 78 1000.6
20240518045233 18 190 3.2 3.2 0.00 0.64 0.64 78 1000.8
20240518044733 18 207 1.6 1.6 0.00 0.64 0.64 77 1000.7
20240518044231 18 207 1.6 1.6 0.00 0.64 0.64 77 1000.9
20240518043729 18 229 3.2 3.2 0.00 0.64 0.64 77 1000.7
20240518043228 18 195 3.2 3.2 0.00 0.64 0.64 77 1000.6
20240518042726 18 207 1.6 1.6 0.00 0.64 0.64 78 1000.7
20240518042226 17 206 3.2 3.2 0.00 0.64 0.64 79 1000.6
20240518041725 17 200 1.6 1.6 0.00 0.64 0.64 81 1000.8
20240518041223 16 208 1.6 1.6 0.00 0.64 0.64 84 1001.0
20240518040723 17 206 0.0 0.0 0.00 0.64 0.64 86 1000.9
20240518040221 17 214 0.0 1.6 0.00 0.64 0.64 86 1000.8
20240518035720 17 200 1.6 1.6 0.00 0.64 0.64 86 1000.7
20240518035218 17 206 0.0 1.6 0.00 0.64 0.64 86 1000.9
20240518034718 17 207 0.0 0.0 0.00 0.64 0.64 85 1001.0
20240518034216 17 196 0.0 1.6 0.00 0.64 0.64 85 1000.7
20240518033716 17 199 1.6 1.6 0.00 0.64 0.64 84 1001.0
20240518033215 16 211 1.6 1.6 0.00 0.64 0.64 87 1000.9
20240518032714 17 204 1.6 1.6 0.28 0.64 0.64 87 1000.8
20240518032212 17 208 3.2 3.2 0.46 0.64 0.64 87 1000.9
20240518031711 17 210 4.8 8.0 0.28 0.61 0.61 84 1000.9
20240518031210 17 167 1.6 3.2 0.00 0.56 0.56 82 1000.7
20240518030706 17 207 4.8 4.8 0.00 0.56 0.56 82 1000.8
20240518030204 17 194 1.6 3.2 0.00 0.56 0.56 82 1000.7
20240518025703 17 191 3.2 3.2 0.00 0.56 0.56 82 1000.7
20240518025201 17 200 3.2 3.2 0.00 0.56 0.56 82 1000.9
20240518024700 17 211 3.2 3.2 0.00 0.56 0.56 82 1001.0
20240518024158 17 207 1.6 3.2 0.00 0.56 0.56 83 1000.8
20240518023657 17 207 1.6 1.6 0.00 0.56 0.56 84 1000.8
20240518023157 17 205 1.6 3.2 0.00 0.56 0.56 83 1000.7
20240518022656 17 220 1.6 3.2 0.00 0.56 0.56 83 1000.7
20240518022156 17 204 3.2 4.8 0.00 0.56 0.56 83 1000.8
20240518021656 17 198 3.2 3.2 0.00 0.56 0.56 83 1000.9
20240518021157 17 193 1.6 3.2 0.00 0.56 0.56 82 1000.9
20240518020655 17 204 3.2 4.8 0.00 0.56 0.56 83 1001.1
20240518020153 18 213 1.6 3.2 0.00 0.56 0.56 82 1001.1
20240518015652 18 199 1.6 3.2 0.00 0.56 0.56 82 1000.9
20240518015150 18 194 4.8 4.8 0.00 0.56 0.56 81 1001.0
20240518014650 18 201 4.8 4.8 0.00 0.56 0.56 80 1001.3
20240518014149 18 207 8.0 11.3 0.00 0.56 0.56 80 1001.2
20240518013649 18 200 6.4 9.7 0.00 0.56 0.56 79 1001.2
20240518013147 18 217 4.8 4.8 0.00 0.56 0.56 81 1001.2
20240518012645 18 222 3.2 4.8 0.00 0.56 0.56 81 1001.2
20240518012144 18 190 3.2 3.2 0.00 0.56 0.56 82 1001.3
20240518011643 17 204 4.8 4.8 0.00 0.56 0.56 85 1001.2
20240518011141 17 185 1.6 3.2 0.18 0.56 0.56 88 1001.0
20240518010640 17 204 3.2 4.8 0.18 0.56 0.56 90 1001.5
20240518010139 17 212 4.8 4.8 0.00 0.51 0.51 89 1002.1
20240518005638 17 220 1.6 3.2 0.00 0.51 0.51 89 1002.6
20240518005136 17 220 3.2 3.2 0.10 0.51 0.51 88 1002.3
20240518004634 17 235 1.6 1.6 0.10 0.51 0.51 87 1002.3
20240518004133 17 206 4.8 9.7 0.00 0.51 0.51 84 1001.8
20240518003632 17 202 4.8 4.8 0.00 0.51 0.51 86 1001.6
20240518003130 17 218 3.2 3.2 0.00 0.51 0.51 87 1001.2
20240518002629 17 198 3.2 3.2 0.00 0.51 0.51 87 1001.3
20240518002130 17 209 3.2 4.8 0.18 0.51 0.51 88 1000.8
20240518001629 16 204 6.4 8.0 0.46 0.51 0.51 91 1000.6
20240518001127 16 197 3.2 3.2 0.28 0.46 0.46 92 1000.6
20240518000625 16 177 3.2 3.2 0.18 0.46 0.46 93 1001.6
20240518000125 16 205 0.0 1.6 0.00 0.41 0.41 93 1001.8
20240517235624 16 211 1.6 1.6 0.10 0.41 0.41 93 1001.5
20240517235123 16 207 1.6 1.6 0.41 0.41 0.41 92 1001.7
20240517234622 16 208 3.2 3.2 1.07 0.41 0.41 91 1001.9
20240517234121 16 197 0.0 1.6 1.55 0.36 0.36 90 1001.7
20240517233619 17 184 1.6 3.2 1.37 0.25 0.25 86 1002.0
20240517233119 18 296 6.4 8.0 0.58 0.13 0.13 80 1002.1
20240517232617 18 219 6.4 8.0 0.00 0.03 0.03 74 1001.9
20240517232116 20 301 6.4 8.0 0.00 0.03 0.03 68 1001.2
20240517231615 22 281 3.2 3.2 0.00 0.03 0.03 61 1000.5
20240517231114 22 238 1.6 1.6 0.00 0.03 0.03 58 1000.0
20240517230614 23 208 0.0 0.0 0.00 0.03 0.03 60 999.5
20240517230113 23 252 1.6 1.6 0.00 0.03 0.03 54 999.5
20240517225613 23 32 1.6 1.6 0.00 0.03 0.03 57 999.5
20240517225110 25 217 0.0 0.0 0.00 0.03 0.03 53 999.8
20240517224609 25 218 0.0 0.0 0.00 0.03 0.03 50 999.6
20240517224107 25 220 0.0 0.0 0.00 0.03 0.03 47 999.8
20240517223606 26 228 1.6 1.6 0.00 0.03 0.03 45 999.4
20240517223105 26 222 3.2 3.2 0.00 0.03 0.03 43 999.2
20240517222603 26 215 3.2 4.8 0.00 0.03 0.03 43 999.1
20240517222102 26 216 6.4 8.0 0.00 0.03 0.03 42 999.1
20240517221601 26 206 3.2 3.2 0.00 0.03 0.03 43 999.3
20240517221059 26 220 3.2 4.8 0.00 0.03 0.03 44 999.3
20240517220558 27 206 1.6 1.6 0.00 0.03 0.03 43 999.2
20240517220055 27 186 6.4 8.0 0.00 0.03 0.03 42 999.2
20240517215553 27 198 4.8 4.8 0.00 0.03 0.03 43 999.4
20240517215051 27 217 4.8 4.8 0.00 0.03 0.03 42 999.5
20240517214551 27 195 1.6 3.2 0.00 0.03 0.03 44 999.5
20240517214050 26 199 1.6 3.2 0.00 0.03 0.03 44 999.8
20240517213549 26 210 4.8 4.8 0.00 0.03 0.03 44 999.6
20240517213048 26 218 1.6 1.6 0.00 0.03 0.03 47 999.8
20240517212547 25 200 3.2 3.2 0.00 0.03 0.03 50 999.7
20240517212045 25 206 3.2 3.2 0.18 0.03 0.03 56 999.8
20240517211545 24 207 1.6 1.6 0.18 0.03 0.03 58 1000.1
20240517211044 25 220 4.8 4.8 0.00 0.00 0.00 57 1000.0
20240517210544 26 220 1.6 1.6 0.00 0.00 0.00 53 1000.1
20240517210043 26 191 1.6 3.2 0.00 0.00 0.00 44 999.9
20240517205541 27 204 9.7 11.3 0.00 0.00 0.00 43 999.9
20240517205039 28 212 4.8 8.0 0.00 0.00 0.00 43 999.8
20240517204538 28 194 1.6 1.6 0.00 0.00 0.00 45 999.8
20240517204037 27 220 4.8 4.8 0.00 0.00 0.00 42 999.9
20240517203536 28 201 3.2 3.2 0.00 0.00 0.00 43 999.9
20240517203035 27 230 3.2 4.8 0.00 0.00 0.00 44 999.8
20240517202534 27 211 1.6 3.2 0.00 0.00 0.00 45 999.9
20240517202033 27 194 3.2 3.2 0.00 0.00 0.00 47 1000.0
20240517201531 27 228 3.2 4.8 0.00 0.00 0.00 44 1000.0
20240517201029 27 187 4.8 4.8 0.00 0.00 0.00 44 1000.0
20240517200529 27 210 3.2 3.2 0.00 0.00 0.00 45 1000.2
20240517200029 27 184 1.6 1.6 0.00 0.00 0.00 44 1000.4
20240517195528 27 207 4.8 8.0 0.00 0.00 0.00 44 1000.3
20240517195027 27 218 4.8 4.8 0.00 0.00 0.00 45 1000.4
20240517194526 27 240 4.8 4.8 0.00 0.00 0.00 43 1000.3
20240517194025 27 197 1.6 1.6 0.00 0.00 0.00 46 1000.4